Portada
METAR-TAF:

METAR-TAF

Aeroports :

Aeroport d'Albacete

Albacete, Espanya

latitud: 38-57N, longitud: 001-51W, altitud: 702 m

Observació

L'informe es va fer fa 43 minuts, a les 20:00 UTC
Vent 12 kt del Oest/Nord-Oest
Temperatura 4°C
Humitat 93%
Pressió 1012 hPa
Visibilitat 10 km o més
Cel ennuvolat a una alçada de 1700 ft
Cel ennuvolat a una alçada de 3000 ft
pluja

METAR: LEAB 222000Z 29012KT 9999 -RA BKN017 BKN030 04/03 Q1012 NOSIG

Hora: 21:43 (20:43 UTC)

Pronòstic

L'informe es va fer fa 43 minuts, a les 20:00 UTC
Pronòstic vàlid del 22 a les 21 UTC al 23 a les 06 UTC
Vent 15 kt del Oest/Nord-Oest
Visibilitat 10 km o més
Núvols disperses a una alçada de 3500 ft
Probabilitat 30% :
Temporalment
l' 22 a les 21 UTC al 22 a les 23 UTC
Visibilitat: 4000 m
Cel ennuvolat a una alçada de 1200 ft
plugim, pluja

TAF: LEAB 222000Z 2221/2306 30015KT 9999 SCT035 PROB30 TEMPO 2221/2223 4000 DZRA BKN012

Observacions i pronòstics meteorològics de més de 4000 aeroports (METAR i TAF).

Les estacions disponibles són els punts grocs i vermells al mapa.

Posi el ratolí al punt desitjat per veure el nom de l'estació.

Feu clic per veure les observacions i els pronòstics meteorològics.

Per canviar el mapa: feu clic els botons verds amb una creu de color negre per apropar; al botó verd amb un guió per allunyar la imatge; o en les fletxes verdes per a mapes adjacents.


METAR-TAF: